This is the latest recevied weather packets stored in our database for station/object OE5HCE. If no packets are shown the sender has not sent any weather packets the latest 10 day(s).
| Time | Temp. | Humidity | Pressure | Rain* | Wind** | Luminosity | Snow |
|---|---|---|---|---|---|---|---|
| 1787438764 | 13.89° C | 71% | 1023.3 hPa | 0 mm | - | 0 W/m² | - |
| 1787437830 | 13.89° C | 72% | 1023.2 hPa | 0 mm | - | 0 W/m² | - |
| 1787436937 | 13.89° C | 74% | 1023.1 hPa | 0 mm | - | 0 W/m² | - |
| 1787436027 | 14.44° C | 74% | 1023.1 hPa | 0 mm | - | 0 W/m² | - |
| 1787435123 | 14.44° C | 75% | 1023 hPa | 0 mm | - | 0 W/m² | - |
| 1787434221 | 14.44° C | 76% | 1022.8 hPa | 0 mm | - | 0 W/m² | - |
| 1787433323 | 15° C | 77% | 1022.8 hPa | 0 mm | - | 0 W/m² | - |
| 1787432428 | 15° C | 77% | 1022.7 hPa | 0 mm | - | 0 W/m² | - |
| 1787431504 | 15.56° C | 77% | 1022.5 hPa | 0 mm | - | 0 W/m² | - |
| 1787430681 | 15.56° C | 76% | 1022.4 hPa | 0 mm | - | 0 W/m² | - |
| 1787429756 | 15.56° C | 76% | 1022.5 hPa | 0 mm | - | 0 W/m² | - |
| 1787428852 | 15.56° C | 76% | 1022.4 hPa | 0 mm | - | 0 W/m² | - |
| 1787427947 | 16.11° C | 77% | 1022.3 hPa | 0 mm | - | 0 W/m² | - |
| 1787427051 | 16.67° C | 76% | 1022.2 hPa | 0 mm | - | 0 W/m² | - |
| 1787426144 | 16.67° C | 74% | 1022 hPa | 0 mm | - | 0 W/m² | - |
| 1787425234 | 17.22° C | 73% | 1021.9 hPa | 0 mm | - | 0 W/m² | - |
| 1787424329 | 17.78° C | 73% | 1021.7 hPa | 0 mm | - | 0 W/m² | - |
| 1787423425 | 18.33° C | 71% | 1021.5 hPa | 0 mm | - | 0 W/m² | - |
| 1787422520 | 18.33° C | 68% | 1021.1 hPa | 0 mm | - | 0 W/m² | - |
| 1787421622 | 18.89° C | 68% | 1021 hPa | 0 mm | - | 9 W/m² | - |
| 1787420712 | 19.44° C | 68% | 1020.8 hPa | 0 mm | - | 21 W/m² | - |
| 1787419808 | 19.44° C | 65% | 1020.6 hPa | 0 mm | - | 30 W/m² | - |
| 1787418903 | 19.44° C | 65% | 1020.5 hPa | 0 mm | - | 40 W/m² | - |
| 1787418059 | 19.44° C | 64% | 1020.3 hPa | 0 mm | - | 72 W/m² | - |
| 1787417154 | 20° C | 61% | 1020 hPa | 0 mm | - | 42 W/m² | - |
* Rain latest hour (hover to see other rain measurements)
** Current wind speed in m/s (hover to see current wind gust speed)